St Pete Beach, Florida
Current Conditions -  °F | °C
As of 10:53 AM on Sunday 23 Nov 2014 (Local Time) from KSPG Reporting Station
Clear Clear  
Wind Chill: 25°   Ceiling: Unl
Heat Index: 26°   Visibility: 10mi
Dew Point: 21°   Wind: 14mph
Humidity: 76%   Direction: 200°SSW
Pressure: 29.97"   Gusts: NA
Location:  27.7426°N, 82.7481°W
Report Text: KSPG 231553Z 20012KT 10SM CLR 25/21 A2997 RMK AO2 SLP150 T02500206
Loading
Personal Weather Stations






























Interactive Weather Map New forecast layout! Learn more

10-Day Weather Forecast

Advertisements
Track Severe Weather on mobile